Time;durP1;ratioP1;P1;durP2;ratioP2;P2;SDS_P1;SDS_P2;PMS_P1;PMS_P2;Temp;Humidity;BMP_temperature;BMP_pressure;BME280_temperature;BME280_humidity;BME280_pressure;Samples;Min_cycle;Max_cycle;Signal;HPM_P1;HPM_P2
2023/03/04 00:00:45;;;;;;;0.00;0.00;;;;;;;5.58;100.00;102537.03;10398651;28;20041;-77
2023/03/04 00:05:46;;;;;;;0.40;0.40;;;;;;;5.67;100.00;102549.59;10419386;28;20057;-77
2023/03/04 00:10:48;;;;;;;0.00;0.00;;;;;;;5.67;100.00;102545.38;10414615;28;20386;-76
2023/03/04 00:15:51;;;;;;;5.85;0.43;;;;;;;5.79;100.00;102545.38;10362246;28;20081;-76
2023/03/04 00:20:52;;;;;;;0.32;0.20;;;;;;;5.77;100.00;102538.38;10384418;28;20447;-76
2023/03/04 00:25:54;;;;;;;0.32;0.28;;;;;;;5.80;100.00;102541.16;10397875;28;20120;-76
2023/03/04 00:30:55;;;;;;;0.00;0.00;;;;;;;5.72;100.00;102538.94;10389093;28;20108;-77
2023/03/04 00:35:57;;;;;;;0.03;0.03;;;;;;;5.61;100.00;102531.25;10383815;28;20077;-76
2023/03/04 00:40:59;;;;;;;0.00;0.00;;;;;;;5.64;100.00;102534.94;10403587;28;20116;-76
2023/03/04 00:46:00;;;;;;;0.00;0.00;;;;;;;5.60;100.00;102530.38;10372394;28;20061;-76
2023/03/04 00:51:04;;;;;;;0.63;0.30;;;;;;;5.74;100.00;102530.47;10384885;28;20479;-75
2023/03/04 00:56:06;;;;;;;0.00;0.00;;;;;;;5.72;100.00;102517.59;10386390;28;20053;-77
2023/03/04 01:01:08;;;;;;;0.30;0.10;;;;;;;5.66;100.00;102515.47;10367078;28;20045;-76
2023/03/04 01:06:10;;;;;;;0.00;0.00;;;;;;;5.66;100.00;102518.03;10394392;28;20048;-76
2023/03/04 01:11:12;;;;;;;0.57;0.35;;;;;;;5.71;100.00;102520.94;10394419;28;20568;-75
2023/03/04 01:16:14;;;;;;;0.00;0.00;;;;;;;5.82;100.00;102516.56;10392409;28;20497;-75
2023/03/04 01:21:16;;;;;;;0.00;0.00;;;;;;;5.85;100.00;102519.34;10393086;28;20057;-77
2023/03/04 01:26:17;;;;;;;0.00;0.00;;;;;;;5.95;100.00;102520.91;10394353;28;20096;-77
2023/03/04 01:31:21;;;;;;;0.03;0.03;;;;;;;5.61;100.00;102514.28;10395559;28;20040;-77
2023/03/04 01:36:22;;;;;;;0.00;0.00;;;;;;;5.62;100.00;102504.91;10381170;28;20522;-77
2023/03/04 01:41:26;;;;;;;0.00;0.00;;;;;;;5.48;100.00;102506.47;10396349;28;20486;-76
2023/03/04 01:46:30;;;;;;;0.00;0.00;;;;;;;5.56;100.00;102500.25;10394999;28;20045;-76
2023/03/04 01:51:31;;;;;;;0.00;0.00;;;;;;;5.63;100.00;102497.34;10396091;28;20096;-76
2023/03/04 01:56:36;;;;;;;0.00;0.00;;;;;;;5.72;100.00;102502.25;10410945;28;20076;-77
2023/03/04 02:01:39;;;;;;;0.75;0.75;;;;;;;5.72;100.00;102494.56;10381509;28;20095;-77
2023/03/04 02:06:41;;;;;;;0.10;0.08;;;;;;;5.71;100.00;102483.44;10371442;28;20144;-76
2023/03/04 02:11:43;;;;;;;0.88;0.50;;;;;;;5.63;100.00;102482.00;10396897;28;20455;-75
2023/03/04 02:16:45;;;;;;;0.25;0.10;;;;;;;5.48;100.00;102480.91;10390588;28;20462;-76
2023/03/04 02:21:51;;;;;;;1.42;0.30;;;;;;;5.52;100.00;102473.56;10380570;28;20055;-75
2023/03/04 02:26:53;;;;;;;0.00;0.00;;;;;;;5.64;100.00;102467.56;10397201;28;20042;-76
2023/03/04 02:31:55;;;;;;;0.00;0.00;;;;;;;5.53;100.00;102464.25;10395151;28;20053;-76
2023/03/04 02:36:57;;;;;;;0.00;0.00;;;;;;;5.83;100.00;102451.84;10384003;28;20076;-76
2023/03/04 02:42:03;;;;;;;0.00;0.00;;;;;;;5.47;100.00;102454.47;10395755;28;20420;-77
2023/03/04 02:47:10;;;;;;;0.00;0.00;;;;;;;5.47;100.00;102444.25;10379871;28;20091;-76
2023/03/04 02:52:19;;;;;;;0.00;0.00;;;;;;;5.63;100.00;102440.22;10380778;28;20046;-76
2023/03/04 02:57:21;;;;;;;0.00;0.00;;;;;;;5.61;100.00;102441.78;10393220;28;20520;-76
2023/03/04 03:02:27;;;;;;;0.00;0.00;;;;;;;5.53;100.00;102436.13;10385401;28;20049;-76
2023/03/04 03:07:28;;;;;;;0.00;0.00;;;;;;;5.51;100.00;102442.78;10402669;28;20092;-77
2023/03/04 03:12:31;;;;;;;1.25;0.47;;;;;;;5.53;100.00;102429.31;10401650;28;20038;-75
2023/03/04 03:17:33;;;;;;;0.00;0.00;;;;;;;5.56;100.00;102434.69;10419637;28;20042;-74
2023/03/04 03:22:35;;;;;;;0.00;0.00;;;;;;;5.82;100.00;102439.84;10399761;28;20037;-76
2023/03/04 03:27:37;;;;;;;0.10;0.10;;;;;;;5.46;100.00;102427.13;10386477;28;20046;-77
2023/03/04 03:32:39;;;;;;;0.00;0.00;;;;;;;5.71;100.00;102419.50;10385376;28;20405;-75
2023/03/04 03:37:41;;;;;;;1.75;0.47;;;;;;;5.69;100.00;102428.78;10382141;28;20050;-76
2023/03/04 03:42:42;;;;;;;0.00;0.00;;;;;;;5.59;100.00;102416.09;10400262;28;20157;-77
2023/03/04 03:47:44;;;;;;;0.00;0.00;;;;;;;5.53;100.00;102424.22;10400038;28;20041;-78
2023/03/04 03:52:46;;;;;;;0.00;0.00;;;;;;;5.64;100.00;102422.41;10393114;28;20046;-78
2023/03/04 03:57:47;;;;;;;0.00;0.00;;;;;;;5.56;100.00;102429.56;10411161;28;20481;-78
2023/03/04 04:02:49;;;;;;;0.10;0.10;;;;;;;5.67;100.00;102427.75;10411619;28;20485;-78
2023/03/04 04:07:50;;;;;;;0.00;0.00;;;;;;;5.62;100.00;102429.09;10383005;28;20053;-79
2023/03/04 04:12:54;;;;;;;1.75;0.55;;;;;;;5.69;100.00;102436.44;10398851;28;20049;-77
2023/03/04 04:17:56;;;;;;;0.00;0.00;;;;;;;5.69;100.00;102431.31;10398715;28;20084;-77
2023/03/04 04:23:11;;;;;;;0.00;0.00;;;;;;;5.53;100.00;102428.47;10403004;28;20068;-78
2023/03/04 04:28:13;;;;;;;0.00;0.00;;;;;;;5.64;100.00;102426.66;10394311;28;20046;-76
2023/03/04 04:33:15;;;;;;;0.00;0.00;;;;;;;5.60;100.00;102420.44;10394870;28;20527;-78
2023/03/04 04:38:16;;;;;;;0.00;0.00;;;;;;;5.52;100.00;102412.22;10398211;28;20045;-77
2023/03/04 04:49:22;;;;;;;0.00;0.00;;;;;;;5.75;100.00;102409.50;10409012;28;20048;-77
2023/03/04 04:54:24;;;;;;;0.08;0.08;;;;;;;5.54;100.00;102414.91;10383777;28;20053;-77
2023/03/04 04:59:27;;;;;;;0.98;0.98;;;;;;;5.66;100.00;102420.88;10355687;28;20100;-78
2023/03/04 05:04:30;;;;;;;0.10;0.10;;;;;;;5.68;100.00;102421.88;10372210;28;20080;-76
2023/03/04 05:09:32;;;;;;;0.00;0.00;;;;;;;5.88;100.00;102417.25;10386434;28;20385;-78
2023/03/04 05:14:34;;;;;;;0.25;0.17;;;;;;;5.58;100.00;102421.13;10394002;28;20411;-78
2023/03/04 05:19:35;;;;;;;0.10;0.10;;;;;;;5.70;100.00;102421.97;10384564;28;20382;-78
2023/03/04 05:24:37;;;;;;;0.20;0.00;;;;;;;5.89;100.00;102416.47;10395785;28;20119;-77
2023/03/04 05:29:43;;;;;;;0.20;0.17;;;;;;;5.66;100.00;102414.88;10412782;28;20049;-77
2023/03/04 05:34:45;;;;;;;0.00;0.00;;;;;;;5.53;100.00;102413.13;10388369;28;20397;-77
2023/03/04 05:39:46;;;;;;;0.00;0.00;;;;;;;5.38;100.00;102403.59;10401642;28;20447;-78
2023/03/04 05:44:48;;;;;;;0.00;0.00;;;;;;;5.55;100.00;102401.31;10404986;28;20424;-78
2023/03/04 05:49:51;;;;;;;1.92;1.52;;;;;;;5.58;100.00;102410.88;10392186;28;20129;-78
2023/03/04 05:54:55;;;;;;;0.05;0.05;;;;;;;5.72;100.00;102416.19;10394598;28;20053;-78
2023/03/04 05:59:56;;;;;;;0.00;0.00;;;;;;;5.68;100.00;102403.97;10412888;28;20107;-78
2023/03/04 06:04:58;;;;;;;0.15;0.10;;;;;;;5.80;100.00;102403.03;10387328;28;20065;-78
2023/03/04 06:09:59;;;;;;;0.00;0.00;;;;;;;5.70;100.00;102402.38;10408372;28;20038;-78
2023/03/04 06:15:01;;;;;;;0.00;0.00;;;;;;;5.79;100.00;102396.13;10416961;28;20049;-80
2023/03/04 06:20:05;;;;;;;0.00;0.00;;;;;;;5.78;100.00;102390.16;10387351;28;20052;-78
2023/03/04 06:25:10;;;;;;;0.43;0.35;;;;;;;5.63;100.00;102389.94;10391869;28;20076;-79
2023/03/04 06:30:12;;;;;;;0.00;0.00;;;;;;;5.58;100.00;102383.63;10373023;28;20068;-78
2023/03/04 06:35:15;;;;;;;0.22;0.10;;;;;;;5.59;100.00;102370.06;10372875;28;20045;-79
2023/03/04 06:40:17;;;;;;;0.00;0.00;;;;;;;5.67;100.00;102358.72;10401925;28;20053;-79
2023/03/04 06:45:18;;;;;;;0.00;0.00;;;;;;;5.72;100.00;102362.47;10404428;28;20049;-79
2023/03/04 06:50:20;;;;;;;0.00;0.00;;;;;;;5.65;100.00;102372.19;10400516;28;20033;-79
2023/03/04 06:55:22;;;;;;;0.00;0.00;;;;;;;5.60;100.00;102353.97;10418051;28;20456;-79
2023/03/04 07:00:23;;;;;;;0.00;0.00;;;;;;;5.73;100.00;102360.81;10399246;28;20042;-78
2023/03/04 07:05:25;;;;;;;0.00;0.00;;;;;;;5.77;100.00;102361.91;10401949;28;20049;-78
2023/03/04 07:10:27;;;;;;;0.03;0.03;;;;;;;5.87;100.00;102369.44;10400759;28;20420;-78
2023/03/04 07:15:29;;;;;;;0.00;0.00;;;;;;;5.99;100.00;102378.00;10415570;28;20054;-78
2023/03/04 07:20:30;;;;;;;0.00;0.00;;;;;;;6.41;100.00;102395.25;10395327;28;20053;-78
2023/03/04 07:25:32;;;;;;;0.47;0.30;;;;;;;6.05;100.00;102389.41;10410952;28;20092;-78
2023/03/04 07:30:36;;;;;;;0.00;0.00;;;;;;;6.43;100.00;102394.56;10415561;28;20048;-79
2023/03/04 07:35:38;;;;;;;0.30;0.10;;;;;;;6.41;100.00;102408.91;10409281;28;20091;-79
2023/03/04 07:40:40;;;;;;;0.00;0.00;;;;;;;6.69;100.00;102412.44;10390948;28;20483;-79
2023/03/04 07:45:41;;;;;;;0.00;0.00;;;;;;;6.23;100.00;102410.25;10392528;28;20107;-78
2023/03/04 07:50:43;;;;;;;0.00;0.00;;;;;;;6.64;100.00;102397.66;10398883;28;20428;-78
2023/03/04 07:55:46;;;;;;;0.00;0.00;;;;;;;6.75;100.00;102407.72;10403228;28;20041;-79
2023/03/04 08:00:50;;;;;;;0.00;0.00;;;;;;;7.03;100.00;102414.66;10407652;28;20037;-77
2023/03/04 08:05:52;;;;;;;0.35;0.08;;;;;;;7.13;100.00;102422.13;10390356;28;20045;-78
2023/03/04 08:10:54;;;;;;;0.00;0.00;;;;;;;6.99;100.00;102419.56;10391779;28;20044;-78
2023/03/04 08:15:55;;;;;;;0.10;0.10;;;;;;;7.26;100.00;102428.94;10387574;28;20107;-77
2023/03/04 08:20:57;;;;;;;0.00;0.00;;;;;;;6.89;100.00;102421.44;10394253;28;20512;-77
2023/03/04 08:25:58;;;;;;;0.00;0.00;;;;;;;7.61;100.00;102428.63;10380235;28;20077;-77
2023/03/04 08:31:00;;;;;;;0.00;0.00;;;;;;;7.09;100.00;102430.44;10386647;28;20049;-76
2023/03/04 08:36:02;;;;;;;0.10;0.10;;;;;;;6.92;100.00;102422.53;10387326;28;20140;-77
2023/03/04 08:41:04;;;;;;;0.00;0.00;;;;;;;7.04;100.00;102391.69;10391449;28;20436;-79
2023/03/04 08:46:06;;;;;;;0.00;0.00;;;;;;;6.80;100.00;102376.50;10396188;28;20049;-78
2023/03/04 08:51:13;;;;;;;0.00;0.00;;;;;;;6.70;100.00;102357.88;10408751;28;20045;-79
2023/03/04 08:56:17;;;;;;;0.00;0.00;;;;;;;6.70;100.00;102345.97;10385527;28;20045;-77
2023/03/04 09:01:18;;;;;;;0.00;0.00;;;;;;;6.97;100.00;102308.41;10399808;28;20077;-78
2023/03/04 09:06:20;;;;;;;0.00;0.00;;;;;;;6.84;100.00;102310.97;10390280;28;20582;-78
2023/03/04 09:11:22;;;;;;;0.00;0.00;;;;;;;7.29;100.00;102321.47;10407766;28;20099;-79
2023/03/04 09:16:23;;;;;;;0.00;0.00;;;;;;;7.34;100.00;102327.75;10400771;28;20046;-78
2023/03/04 09:21:25;;;;;;;0.00;0.00;;;;;;;7.51;100.00;102331.38;10378098;28;20059;-78
2023/03/04 09:26:28;;;;;;;0.20;0.17;;;;;;;7.33;100.00;102343.94;10405205;28;20076;-78
2023/03/04 09:31:30;;;;;;;0.00;0.00;;;;;;;7.72;100.00;102323.19;10369746;28;20042;-79
2023/03/04 09:36:32;;;;;;;0.00;0.00;;;;;;;7.82;100.00;102348.63;10381184;28;20072;-78
2023/03/04 09:41:42;;;;;;;0.17;0.17;;;;;;;8.08;100.00;102354.41;10406812;28;20046;-78
2023/03/04 09:46:44;;;;;;;;;;;;;;;8.03;100.00;102363.53;10401618;28;20049;-78
2023/03/04 09:51:53;;;;;;;0.70;0.43;;;;;;;7.53;100.00;102368.25;10407105;28;19929;-77
2023/03/04 09:57:09;;;;;;;0.00;0.00;;;;;;;8.41;100.00;102354.63;10383971;28;20095;-79
2023/03/04 10:02:32;;;;;;;0.85;0.10;;;;;;;8.04;100.00;102357.59;10373434;28;20048;-78
2023/03/04 10:07:40;;;;;;;0.00;0.00;;;;;;;7.49;100.00;102330.38;10384539;28;20049;-78
2023/03/04 10:12:48;;;;;;;0.00;0.00;;;;;;;7.45;100.00;102305.34;10381506;28;20084;-76
2023/03/04 10:17:59;;;;;;;0.00;0.00;;;;;;;7.39;100.00;102297.28;10398075;28;20044;-77
2023/03/04 10:23:17;;;;;;;0.00;0.00;;;;;;;8.07;100.00;102266.28;10414558;28;20053;-78
2023/03/04 10:28:33;;;;;;;0.15;0.00;;;;;;;7.87;100.00;102277.94;10378095;28;20521;-78
2023/03/04 10:33:38;;;;;;;0.00;0.00;;;;;;;7.81;100.00;102271.56;10408458;28;20080;-77
2023/03/04 10:38:41;;;;;;;0.10;0.10;;;;;;;7.67;100.00;102255.34;10412187;28;20045;-78
2023/03/04 10:43:48;;;;;;;0.00;0.00;;;;;;;7.74;100.00;102213.88;10384215;28;20069;-77
2023/03/04 10:48:50;;;;;;;0.00;0.00;;;;;;;7.35;100.00;102218.38;10386229;28;20520;-77
2023/03/04 10:53:57;;;;;;;0.05;0.03;;;;;;;6.81;100.00;102175.03;10380347;28;20076;-76
2023/03/04 10:59:40;;;;;;;0.00;0.00;;;;;;;6.95;100.00;102099.91;10396179;28;20056;-78
2023/03/04 11:04:47;;;;;;;0.00;0.00;;;;;;;7.01;100.00;102103.59;10386759;28;20045;-80
2023/03/04 11:09:49;;;;;;;0.00;0.00;;;;;;;7.47;100.00;102107.19;10373915;28;20567;-80
2023/03/04 11:14:51;;;;;;;0.00;0.00;;;;;;;8.30;100.00;102124.63;10395926;28;20052;-81
2023/03/04 11:20:14;;;;;;;0.00;0.00;;;;;;;7.87;100.00;102157.31;10388196;28;20100;-77
2023/03/04 11:25:37;;;;;;;0.00;0.00;;;;;;;7.75;100.00;102205.38;10385058;28;20053;-78
2023/03/04 11:30:52;;;;;;;0.00;0.00;;;;;;;7.60;100.00;102197.66;10418007;28;20431;-79
2023/03/04 11:35:58;;;;;;;0.00;0.00;;;;;;;7.61;100.00;102205.47;10402256;28;20050;-79
2023/03/04 11:41:09;;;;;;;0.32;0.32;;;;;;;7.55;100.00;102207.66;10401633;28;20100;-79
2023/03/04 11:46:25;;;;;;;0.00;0.00;;;;;;;7.80;100.00;102205.66;10400446;28;20053;-76
2023/03/04 11:52:09;;;;;;;0.10;0.10;;;;;;;7.50;100.00;102203.06;10398834;28;20065;-78
2023/03/04 11:57:33;;;;;;;0.00;0.00;;;;;;;7.60;100.00;102206.25;10368368;28;20073;-79
2023/03/04 12:03:04;;;;;;;0.00;0.00;;;;;;;7.68;100.00;102201.56;10393662;28;20132;-78
2023/03/04 12:08:30;;;;;;;0.00;0.00;;;;;;;7.63;100.00;102211.53;10355912;28;20053;-76
2023/03/04 12:13:41;;;;;;;3.60;0.10;;;;;;;7.77;100.00;102229.47;10390395;28;20034;-78
2023/03/04 12:19:00;;;;;;;1.00;0.60;;;;;;;7.81;100.00;102216.00;10411049;28;20094;-78
2023/03/04 12:24:39;;;;;;;0.00;0.00;;;;;;;8.18;100.00;102228.38;10399100;28;20064;-79
2023/03/04 12:30:05;;;;;;;0.95;0.90;;;;;;;8.27;100.00;102251.13;10409573;28;20038;-77
2023/03/04 12:35:27;;;;;;;0.00;0.00;;;;;;;7.10;100.00;102252.81;10378242;28;20046;-77
2023/03/04 12:40:37;;;;;;;0.00;0.00;;;;;;;7.12;100.00;102251.19;10391724;28;20065;-76
2023/03/04 12:45:43;;;;;;;1.75;0.57;;;;;;;7.22;100.00;102248.41;10412168;28;20052;-77
2023/03/04 12:50:59;;;;;;;0.35;0.35;;;;;;;7.38;100.00;102263.06;10387133;28;20050;-79
2023/03/04 12:56:35;;;;;;;0.00;0.00;;;;;;;7.78;100.00;102254.31;10478648;28;20378;-78
2023/03/04 13:01:47;;;;;;;0.00;0.00;;;;;;;7.88;100.00;102254.03;10454213;28;20041;-79
2023/03/04 13:07:05;;;;;;;0.00;0.00;;;;;;;8.12;100.00;102238.31;10472626;28;20047;-78
2023/03/04 13:12:15;;;;;;;0.00;0.00;;;;;;;7.91;100.00;102233.72;10431978;28;20080;-77
2023/03/04 13:17:38;;;;;;;0.00;0.00;;;;;;;8.00;100.00;102242.75;10451216;28;20045;-78
2023/03/04 13:22:58;;;;;;;0.00;0.00;;;;;;;8.21;100.00;102261.94;10448338;28;20045;-79
2023/03/04 13:28:12;;;;;;;0.20;0.15;;;;;;;8.17;100.00;102282.22;10437563;28;20046;-78
2023/03/04 13:33:13;;;;;;;0.00;0.00;;;;;;;7.55;100.00;102292.31;10443267;28;20033;-78
2023/03/04 13:38:23;;;;;;;0.00;0.00;;;;;;;7.74;100.00;102301.09;10446437;28;20057;-79
2023/03/04 13:43:38;;;;;;;0.00;0.00;;;;;;;8.08;100.00;102303.06;10443935;28;20049;-78
2023/03/04 13:48:40;;;;;;;0.00;0.00;;;;;;;8.16;100.00;102301.84;10421806;28;20051;-78
2023/03/04 13:53:55;;;;;;;0.00;0.00;;;;;;;7.90;100.00;102301.22;10441437;28;20576;-78
2023/03/04 13:59:27;;;;;;;0.30;0.30;;;;;;;7.88;100.00;102313.06;10441857;28;20469;-80
2023/03/04 14:04:41;;;;;;;0.47;0.38;;;;;;;8.09;100.00;102304.84;10435672;28;20046;-77
2023/03/04 14:10:13;;;;;;;0.45;0.45;;;;;;;8.20;100.00;102310.63;10435245;28;20045;-78
2023/03/04 14:15:18;;;;;;;0.05;0.00;;;;;;;7.80;100.00;102311.72;10418402;28;20056;-77
2023/03/04 14:20:37;;;;;;;0.00;0.00;;;;;;;7.73;100.00;102307.00;10420946;28;20083;-77
2023/03/04 14:25:39;;;;;;;0.00;0.00;;;;;;;7.85;100.00;102299.16;10414576;28;20095;-77
2023/03/04 14:30:41;;;;;;;0.52;0.52;;;;;;;7.78;100.00;102292.81;10428941;28;20041;-77
2023/03/04 14:35:47;;;;;;;0.90;0.50;;;;;;;7.93;100.00;102287.69;10438067;28;20492;-79
2023/03/04 14:40:53;;;;;;;0.70;0.10;;;;;;;7.97;100.00;102288.75;10410243;28;20040;-78
2023/03/04 14:45:59;;;;;;;0.00;0.00;;;;;;;7.76;100.00;102279.88;10431034;28;20050;-78
2023/03/04 14:51:02;;;;;;;0.00;0.00;;;;;;;7.92;100.00;102268.84;10421277;28;20095;-79
2023/03/04 14:56:05;;;;;;;0.45;0.10;;;;;;;8.13;100.00;102276.03;10413525;28;20045;-79
2023/03/04 15:01:20;;;;;;;1.02;0.25;;;;;;;8.38;100.00;102283.44;10439161;28;20480;-78
2023/03/04 15:06:24;;;;;;;0.05;0.05;;;;;;;7.77;100.00;102270.50;10398553;28;20053;-79
2023/03/04 15:11:44;;;;;;;0.00;0.00;;;;;;;8.12;100.00;102269.09;10443548;28;20045;-78
2023/03/04 15:16:54;;;;;;;0.35;0.10;;;;;;;7.73;100.00;102278.78;10420314;28;20060;-78
2023/03/04 15:22:06;;;;;;;0.00;0.00;;;;;;;7.71;100.00;102263.31;10416283;28;20064;-77
2023/03/04 15:27:11;;;;;;;0.00;0.00;;;;;;;7.97;100.00;102268.22;10421167;28;20045;-78
2023/03/04 15:32:15;;;;;;;0.00;0.00;;;;;;;7.54;100.00;102262.31;10416499;28;20033;-78
2023/03/04 15:37:20;;;;;;;0.00;0.00;;;;;;;7.68;100.00;102265.69;10416063;28;20059;-77
2023/03/04 15:42:22;;;;;;;1.27;0.32;;;;;;;7.83;100.00;102263.16;10410119;28;20076;-77
2023/03/04 15:47:24;;;;;;;0.00;0.00;;;;;;;7.65;100.00;102268.09;10413153;28;20057;-77
2023/03/04 15:52:26;;;;;;;0.00;0.00;;;;;;;7.47;100.00;102265.31;10403816;28;20095;-77
2023/03/04 15:57:27;;;;;;;0.00;0.00;;;;;;;7.24;100.00;102257.09;10409897;28;20100;-77
2023/03/04 16:02:29;;;;;;;0.47;0.47;;;;;;;7.21;100.00;102262.03;10421775;28;20044;-78
2023/03/04 16:07:31;;;;;;;1.08;0.30;;;;;;;7.28;100.00;102258.16;10392552;28;20091;-77
2023/03/04 16:12:32;;;;;;;0.20;0.17;;;;;;;7.33;100.00;102266.16;10414629;28;20049;-78
2023/03/04 16:17:34;;;;;;;0.00;0.00;;;;;;;6.96;100.00;102264.75;10412881;28;20519;-76
2023/03/04 16:22:36;;;;;;;0.40;0.40;;;;;;;7.07;100.00;102268.88;10419063;28;20045;-76
2023/03/04 16:27:38;;;;;;;0.10;0.10;;;;;;;6.98;100.00;102268.31;10402104;28;20115;-78
2023/03/04 16:32:40;;;;;;;0.00;0.00;;;;;;;7.01;100.00;102267.59;10412730;28;20068;-77
2023/03/04 16:37:42;;;;;;;0.00;0.00;;;;;;;6.89;100.00;102276.28;10402861;28;20075;-77
2023/03/04 16:42:44;;;;;;;3.40;0.38;;;;;;;6.85;100.00;102271.75;10401101;28;20052;-76
2023/03/04 16:47:46;;;;;;;0.20;0.10;;;;;;;6.89;100.00;102266.03;10405223;28;20095;-76
2023/03/04 16:52:48;;;;;;;0.00;0.00;;;;;;;6.90;100.00;102272.94;10408426;28;20046;-77
2023/03/04 16:57:51;;;;;;;0.13;0.13;;;;;;;6.92;100.00;102273.91;10406214;28;20489;-77
2023/03/04 17:02:56;;;;;;;0.00;0.00;;;;;;;6.89;100.00;102273.72;10406054;28;20048;-77
2023/03/04 17:07:58;;;;;;;0.00;0.00;;;;;;;6.71;100.00;102265.75;10433996;28;20045;-77
2023/03/04 17:12:59;;;;;;;0.00;0.00;;;;;;;6.96;100.00;102270.75;10407902;28;20046;-76
2023/03/04 17:18:01;;;;;;;0.00;0.00;;;;;;;6.89;100.00;102263.47;10392169;28;20054;-78
2023/03/04 17:23:03;;;;;;;0.00;0.00;;;;;;;6.58;100.00;102266.66;10392191;28;20132;-77
2023/03/04 17:28:04;;;;;;;0.00;0.00;;;;;;;6.59;100.00;102276.09;10398281;28;20054;-77
2023/03/04 17:33:06;;;;;;;0.10;0.10;;;;;;;6.51;100.00;102270.50;10394823;28;20042;-76
2023/03/04 17:38:08;;;;;;;0.00;0.00;;;;;;;6.58;100.00;102279.47;10390949;28;20052;-77
2023/03/04 17:43:12;;;;;;;5.10;0.35;;;;;;;6.41;100.00;102282.59;10401961;28;20144;-78
2023/03/04 17:48:14;;;;;;;0.08;0.08;;;;;;;6.38;100.00;102277.28;10409888;28;20046;-77
2023/03/04 17:53:16;;;;;;;0.00;0.00;;;;;;;6.39;100.00;102277.41;10415071;28;20473;-76
2023/03/04 17:58:18;;;;;;;1.25;0.22;;;;;;;6.41;100.00;102272.38;10405428;28;20037;-76
2023/03/04 18:03:20;;;;;;;0.00;0.00;;;;;;;6.41;100.00;102273.22;10405095;28;20099;-78
2023/03/04 18:08:21;;;;;;;0.00;0.00;;;;;;;6.49;100.00;102276.31;10395174;28;20049;-77
2023/03/04 18:13:24;;;;;;;1.02;0.80;;;;;;;6.52;100.00;102279.03;10402545;28;20052;-78
2023/03/04 18:18:26;;;;;;;0.25;0.25;;;;;;;6.54;100.00;102269.81;10411071;28;20080;-79
2023/03/04 18:23:28;;;;;;;0.15;0.05;;;;;;;6.46;100.00;102270.97;10392123;28;20080;-78
2023/03/04 18:28:30;;;;;;;0.00;0.00;;;;;;;6.42;100.00;102266.47;10402163;28;20046;-78
2023/03/04 18:33:32;;;;;;;0.10;0.10;;;;;;;6.26;100.00;102279.91;10399292;28;20034;-77
2023/03/04 18:38:34;;;;;;;0.25;0.17;;;;;;;6.16;100.00;102269.09;10418567;28;20079;-78
2023/03/04 18:43:36;;;;;;;2.17;0.93;;;;;;;5.93;100.00;102277.75;10400811;28;20041;-77
2023/03/04 18:48:44;;;;;;;0.00;0.00;;;;;;;6.11;100.00;102278.13;10397803;28;20041;-77
2023/03/04 18:53:46;;;;;;;0.00;0.00;;;;;;;5.82;100.00;102273.59;10391441;28;20100;-77
2023/03/04 18:58:50;;;;;;;0.00;0.00;;;;;;;5.78;100.00;102267.38;10400260;28;20447;-77
2023/03/04 19:03:53;;;;;;;0.00;0.00;;;;;;;5.59;100.00;102269.47;10413321;28;20045;-77
2023/03/04 19:08:54;;;;;;;0.00;0.00;;;;;;;5.67;100.00;102265.75;10401421;28;20068;-78
2023/03/04 19:13:56;;;;;;;0.45;0.28;;;;;;;5.78;100.00;102256.25;10410417;28;20041;-78
2023/03/04 19:18:58;;;;;;;0.15;0.15;;;;;;;5.72;100.00;102265.28;10395788;28;20050;-78
2023/03/04 19:23:59;;;;;;;0.00;0.00;;;;;;;5.83;100.00;102260.03;10382062;28;20037;-78
2023/03/04 19:29:04;;;;;;;0.28;0.28;;;;;;;5.60;100.00;102261.00;10408723;28;20489;-78
2023/03/04 19:34:06;;;;;;;0.00;0.00;;;;;;;5.42;100.00;102258.09;10376528;28;20639;-78
2023/03/04 19:39:08;;;;;;;0.45;0.45;;;;;;;5.76;100.00;102251.03;10398213;28;20461;-78
2023/03/04 19:44:10;;;;;;;0.00;0.00;;;;;;;5.79;100.00;102260.59;10404713;28;20092;-77
2023/03/04 19:49:12;;;;;;;0.00;0.00;;;;;;;5.70;100.00;102261.75;10385591;28;20084;-77
2023/03/04 19:54:13;;;;;;;0.10;0.10;;;;;;;5.61;100.00;102266.25;10410470;28;20481;-76
2023/03/04 19:59:15;;;;;;;0.00;0.00;;;;;;;5.71;100.00;102266.06;10398478;28;20041;-77
2023/03/04 20:04:19;;;;;;;0.00;0.00;;;;;;;5.31;100.00;102253.16;10401502;28;20103;-78
2023/03/04 20:09:21;;;;;;;0.10;0.10;;;;;;;5.62;100.00;102252.66;10408611;28;20041;-78
2023/03/04 20:14:23;;;;;;;0.20;0.20;;;;;;;5.69;100.00;102228.41;10406168;28;20052;-77
2023/03/04 20:19:25;;;;;;;0.00;0.00;;;;;;;5.45;100.00;102230.19;10399729;28;20385;-77
2023/03/04 20:24:30;;;;;;;0.00;0.00;;;;;;;5.51;100.00;102230.59;10408212;28;20046;-77
2023/03/04 20:29:31;;;;;;;0.60;0.60;;;;;;;5.26;100.00;102221.25;10387690;28;20148;-78
2023/03/04 20:34:35;;;;;;;0.25;0.25;;;;;;;5.43;100.00;102217.31;10388235;28;20441;-77
2023/03/04 20:39:37;;;;;;;1.55;1.45;;;;;;;5.55;100.00;102219.78;10419131;28;20288;-77
2023/03/04 20:44:38;;;;;;;0.00;0.00;;;;;;;5.37;100.00;102215.22;10412559;28;20029;-77
2023/03/04 20:49:40;;;;;;;0.15;0.13;;;;;;;5.14;100.00;102212.75;10408019;28;20100;-77
2023/03/04 20:54:42;;;;;;;0.10;0.10;;;;;;;5.08;100.00;102208.09;10389996;28;20048;-78
2023/03/04 20:59:43;;;;;;;0.00;0.00;;;;;;;5.12;100.00;102209.19;10394869;28;20050;-78
2023/03/04 21:04:45;;;;;;;0.25;0.25;;;;;;;5.22;100.00;102215.03;10405678;28;20057;-79
2023/03/04 21:09:47;;;;;;;0.00;0.00;;;;;;;5.30;100.00;102201.91;10395534;28;20390;-77
2023/03/04 21:14:49;;;;;;;0.63;0.43;;;;;;;5.27;100.00;102202.59;10412529;28;20119;-78
2023/03/04 21:19:52;;;;;;;0.00;0.00;;;;;;;5.15;100.00;102196.66;10400113;28;20053;-77
2023/03/04 21:24:54;;;;;;;4.55;0.63;;;;;;;4.85;100.00;102175.88;10381498;28;20060;-77
2023/03/04 21:29:56;;;;;;;0.03;0.03;;;;;;;5.02;100.00;102167.72;10416613;28;20572;-78
2023/03/04 21:34:58;;;;;;;0.00;0.00;;;;;;;5.00;100.00;102164.16;10403624;28;20045;-78
2023/03/04 21:40:01;;;;;;;0.00;0.00;;;;;;;5.27;100.00;102154.03;10404901;28;20048;-78
2023/03/04 21:45:04;;;;;;;0.10;0.10;;;;;;;5.03;100.00;102159.25;10405791;28;20449;-78
2023/03/04 21:50:10;;;;;;;0.30;0.17;;;;;;;5.34;100.00;102161.34;10398480;28;20045;-77
2023/03/04 21:55:21;;;;;;;0.25;0.15;;;;;;;5.08;100.00;102152.81;10404307;28;20120;-79
2023/03/04 22:00:23;;;;;;;0.00;0.00;;;;;;;5.07;100.00;102145.91;10402634;28;20080;-78
2023/03/04 22:05:25;;;;;;;0.10;0.10;;;;;;;5.16;100.00;102149.88;10395565;28;20096;-79
2023/03/04 22:10:28;;;;;;;0.45;0.22;;;;;;;4.90;100.00;102151.53;10409573;28;20049;-79
2023/03/04 22:15:29;;;;;;;0.88;0.25;;;;;;;4.81;100.00;102133.00;10409208;28;20497;-78
2023/03/04 22:20:36;;;;;;;0.00;0.00;;;;;;;4.90;100.00;102126.00;10417618;28;20666;-79
2023/03/04 22:25:40;;;;;;;0.45;0.22;;;;;;;4.78;100.00;102120.03;10403289;28;20049;-79
2023/03/04 22:30:44;;;;;;;0.00;0.00;;;;;;;4.70;100.00;102128.06;10403199;28;20107;-77
2023/03/04 22:35:51;;;;;;;0.00;0.00;;;;;;;4.64;100.00;102117.44;10387349;28;20042;-78
2023/03/04 22:40:52;;;;;;;0.00;0.00;;;;;;;4.73;100.00;102115.50;10395163;28;20366;-78
2023/03/04 22:45:58;;;;;;;0.00;0.00;;;;;;;4.94;100.00;102125.44;10395252;28;20038;-78
2023/03/04 22:51:04;;;;;;;0.00;0.00;;;;;;;4.82;100.00;102117.81;10396226;28;20068;-77
2023/03/04 22:56:06;;;;;;;0.05;0.05;;;;;;;4.80;100.00;102114.25;10392785;28;20053;-78
2023/03/04 23:01:09;;;;;;;0.00;0.00;;;;;;;4.66;100.00;102108.19;10412501;28;20111;-78
2023/03/04 23:06:17;;;;;;;0.35;0.25;;;;;;;4.50;100.00;102093.50;10404744;28;20048;-78
2023/03/04 23:11:26;;;;;;;0.10;0.10;;;;;;;4.63;100.00;102085.03;10409856;28;20136;-78
2023/03/04 23:16:27;;;;;;;0.00;0.00;;;;;;;4.57;100.00;102076.94;10413639;28;20049;-77
2023/03/04 23:21:32;;;;;;;0.63;0.63;;;;;;;4.40;100.00;102076.66;10409518;28;20411;-78
2023/03/04 23:26:39;;;;;;;0.00;0.00;;;;;;;4.49;100.00;102075.53;10410129;28;20038;-78